Time;durP1;ratioP1;P1;durP2;ratioP2;P2;SDS_P1;SDS_P2;PMS_P1;PMS_P2;Temp;Humidity;BMP_temperature;BMP_pressure;BME280_temperature;BME280_humidity;BME280_pressure;Samples;Min_cycle;Max_cycle;Signal;HPM_P1;HPM_P2
2022/04/21 00:00:44;;;;;;;9.83;6.20;;;5.50;94.00;;;;;;5101025;28;20244;-80
2022/04/21 00:03:13;;;;;;;18.67;11.87;;;5.50;94.10;;;;;;5102172;28;20313;-79
2022/04/21 00:05:39;;;;;;;10.70;6.07;;;5.50;94.40;;;;;;5101747;28;20237;-80
2022/04/21 00:08:07;;;;;;;11.53;5.50;;;5.40;94.30;;;;;;5105461;28;20230;-80
2022/04/21 00:10:34;;;;;;;20.30;13.13;;;5.40;94.40;;;;;;5106571;28;20233;-80
2022/04/21 00:13:01;;;;;;;14.50;9.67;;;5.40;94.50;;;;;;5094994;28;20224;-80
2022/04/21 00:15:28;;;;;;;9.73;7.67;;;5.40;94.60;;;;;;5097516;28;20299;-80
2022/04/21 00:17:56;;;;;;;8.90;5.93;;;5.40;94.70;;;;;;5105937;28;20224;-80
2022/04/21 00:20:24;;;;;;;11.13;6.67;;;5.30;94.80;;;;;;5100851;28;20286;-80
2022/04/21 00:25:35;;;;;;;9.97;7.27;;;5.30;94.80;;;;;;5104461;28;20226;-80
2022/04/21 00:28:02;;;;;;;8.10;5.73;;;5.30;94.90;;;;;;5098297;28;20225;-79
2022/04/21 00:30:29;;;;;;;7.50;6.20;;;5.20;95.00;;;;;;5099168;28;20235;-79
2022/04/21 00:32:56;;;;;;;10.77;6.93;;;5.20;95.30;;;;;;5099821;28;20306;-80
2022/04/21 00:35:25;;;;;;;9.67;6.77;;;5.20;95.00;;;;;;5094282;28;20305;-79
2022/04/21 00:37:53;;;;;;;8.60;5.97;;;5.20;95.40;;;;;;5102684;28;20225;-79
2022/04/21 00:40:22;;;;;;;8.07;5.70;;;5.10;95.30;;;;;;5097426;28;20248;-80
2022/04/21 00:42:49;;;;;;;8.47;6.00;;;5.10;95.30;;;;;;5102090;28;20229;-80
2022/04/21 00:45:16;;;;;;;10.37;6.53;;;5.10;95.40;;;;;;5095235;28;20257;-79
2022/04/21 00:47:45;;;;;;;11.40;7.10;;;5.10;95.60;;;;;;5104588;27;20864;-77
2022/04/21 00:50:15;;;;;;;13.37;8.70;;;5.10;95.70;;;;;;5102931;28;20811;-77
2022/04/21 00:52:45;;;;;;;8.10;6.40;;;5.10;95.80;;;;;;5104149;28;20290;-77
2022/04/21 00:55:13;;;;;;;10.07;6.40;;;5.00;95.90;;;;;;5099798;28;20798;-79
2022/04/21 00:57:42;;;;;;;6.90;5.87;;;5.00;95.80;;;;;;5102526;28;20606;-79
2022/04/21 01:00:10;;;;;;;7.83;6.03;;;5.00;95.90;;;;;;5100657;28;20720;-79
2022/04/21 01:02:50;;;;;;;9.07;6.83;;;4.90;95.80;;;;;;5103365;28;20234;-80
2022/04/21 01:05:18;;;;;;;9.43;6.57;;;4.90;95.80;;;;;;5101295;28;20233;-79
2022/04/21 01:07:46;;;;;;;13.57;7.10;;;4.90;95.80;;;;;;5102627;28;20335;-79
2022/04/21 01:10:13;;;;;;;8.30;5.90;;;4.90;96.10;;;;;;5099927;27;20314;-80
2022/04/21 01:12:43;;;;;;;10.20;7.70;;;4.90;96.00;;;;;;5103293;28;20328;-79
2022/04/21 01:15:10;;;;;;;8.97;6.37;;;4.90;96.00;;;;;;5100872;28;20245;-79
2022/04/21 01:17:38;;;;;;;9.17;6.60;;;4.80;95.90;;;;;;5101179;28;20701;-80
2022/04/21 01:20:06;;;;;;;9.70;6.47;;;4.80;96.10;;;;;;5101355;28;20299;-79
2022/04/21 01:22:35;;;;;;;9.63;6.40;;;4.80;96.20;;;;;;5104687;28;20285;-79
2022/04/21 01:25:01;;;;;;;8.57;6.23;;;4.80;96.30;;;;;;5101315;28;20244;-79
2022/04/21 01:27:31;;;;;;;8.53;6.40;;;4.80;96.30;;;;;;5097447;28;20660;-78
2022/04/21 01:29:58;;;;;;;8.03;6.47;;;4.80;96.40;;;;;;5106086;28;20321;-78
2022/04/21 01:32:25;;;;;;;10.03;6.10;;;4.70;96.30;;;;;;5104496;27;20229;-79
2022/04/21 01:34:52;;;;;;;8.93;6.13;;;4.70;96.30;;;;;;5104202;28;20232;-79
2022/04/21 01:42:53;;;;;;;13.27;7.70;;;4.70;96.40;;;;;;5102786;27;20225;-80
2022/04/21 01:45:20;;;;;;;11.93;8.23;;;4.70;96.30;;;;;;5105098;28;20563;-79
2022/04/21 01:47:47;;;;;;;10.53;7.33;;;4.70;96.60;;;;;;5105003;27;20222;-79
2022/04/21 01:50:14;;;;;;;13.73;7.87;;;4.60;96.80;;;;;;5105483;28;20235;-79
2022/04/21 01:52:41;;;;;;;12.57;8.07;;;4.60;96.80;;;;;;5105648;28;20232;-79
2022/04/21 01:55:10;;;;;;;18.23;11.33;;;4.60;96.70;;;;;;5101947;27;20769;-79
2022/04/21 01:57:37;;;;;;;12.30;8.10;;;4.60;96.70;;;;;;5103258;28;20267;-79
2022/04/21 02:00:05;;;;;;;12.57;8.67;;;4.60;96.60;;;;;;5103226;28;20834;-79
2022/04/21 02:02:32;;;;;;;9.43;5.83;;;4.60;96.70;;;;;;5105668;27;20230;-79
2022/04/21 02:05:00;;;;;;;14.20;8.23;;;4.50;96.70;;;;;;5105224;27;20286;-79
2022/04/21 02:07:28;;;;;;;18.43;10.70;;;4.50;96.70;;;;;;5098284;27;20237;-79
2022/04/21 02:09:55;;;;;;;14.33;9.50;;;4.50;96.60;;;;;;5104015;28;20268;-80
2022/04/21 02:12:23;;;;;;;11.27;7.93;;;4.50;97.00;;;;;;5103580;27;20221;-79
2022/04/21 02:14:51;;;;;;;10.43;6.33;;;4.50;97.00;;;;;;5105330;28;21071;-78
2022/04/21 02:17:19;;;;;;;11.83;8.50;;;4.50;97.40;;;;;;5102054;28;20312;-81
2022/04/21 02:19:45;;;;;;;10.93;8.27;;;4.40;97.30;;;;;;5105799;28;20309;-82
2022/04/21 02:22:13;;;;;;;16.87;11.20;;;4.40;97.10;;;;;;5103458;28;20320;-82
2022/04/21 02:24:40;;;;;;;7.93;5.97;;;4.40;97.30;;;;;;5101837;28;20232;-82
2022/04/21 02:27:06;;;;;;;12.57;8.30;;;4.40;97.40;;;;;;5101865;28;20236;-83
2022/04/21 02:29:35;;;;;;;9.10;6.53;;;4.40;97.40;;;;;;5105756;28;20303;-83
2022/04/21 02:32:02;;;;;;;13.53;8.77;;;4.40;97.30;;;;;;5107275;27;20221;-83
2022/04/21 02:34:29;;;;;;;9.63;7.13;;;4.40;97.20;;;;;;5104411;27;20229;-82
2022/04/21 02:36:57;;;;;;;33.00;19.03;;;4.40;97.10;;;;;;5105137;28;20901;-82
2022/04/21 02:39:25;;;;;;;22.13;11.27;;;4.40;97.30;;;;;;5095674;27;20232;-83
2022/04/21 02:41:52;;;;;;;22.27;12.07;;;4.30;97.40;;;;;;5110790;27;20259;-83
2022/04/21 02:44:19;;;;;;;12.97;7.00;;;4.40;97.30;;;;;;5107989;28;20887;-82
2022/04/21 02:46:47;;;;;;;38.93;19.67;;;4.30;97.20;;;;;;5109715;28;20244;-82
2022/04/21 02:49:16;;;;;;;27.40;15.57;;;4.30;97.50;;;;;;5106072;27;20232;-82
2022/04/21 02:51:43;;;;;;;13.43;8.50;;;4.30;97.50;;;;;;5107115;27;20249;-82
2022/04/21 02:59:40;;;;;;;8.73;6.33;;;4.30;97.50;;;;;;5101001;28;20301;-83
2022/04/21 03:02:09;;;;;;;7.43;5.83;;;4.20;97.50;;;;;;5104346;28;20566;-82
2022/04/21 03:04:35;;;;;;;5.70;4.90;;;4.20;97.50;;;;;;5107346;28;20251;-82
2022/04/21 03:07:02;;;;;;;8.60;5.90;;;4.10;97.30;;;;;;5105371;28;20217;-83
2022/04/21 03:09:29;;;;;;;13.07;7.13;;;4.10;97.30;;;;;;5104443;28;20392;-83
2022/04/21 03:12:01;;;;;;;10.90;7.27;;;4.10;97.40;;;;;;5108161;27;20216;-83
2022/04/21 03:14:28;;;;;;;9.90;6.50;;;4.10;97.70;;;;;;5118767;27;20237;-84
2022/04/21 03:16:54;;;;;;;9.63;6.27;;;4.00;97.40;;;;;;5107648;28;20252;-83
2022/04/21 03:19:22;;;;;;;7.93;5.80;;;4.00;97.60;;;;;;5101583;28;20304;-83
2022/04/21 03:24:34;;;;;;;22.13;13.60;;;3.90;97.90;;;;;;5094883;28;20221;-82
2022/04/21 03:27:01;;;;;;;11.73;7.73;;;3.90;97.80;;;;;;5100056;28;20229;-82
2022/04/21 03:29:28;;;;;;;12.87;8.10;;;3.90;98.00;;;;;;5103295;28;20233;-81
2022/04/21 03:31:55;;;;;;;10.97;7.90;;;3.90;97.90;;;;;;5103776;27;20244;-82
2022/04/21 03:34:23;;;;;;;9.93;6.53;;;3.80;98.00;;;;;;5099312;28;20221;-82
2022/04/21 03:36:50;;;;;;;13.50;8.40;;;3.80;98.20;;;;;;5108139;27;20236;-82
2022/04/21 03:39:20;;;;;;;10.03;6.87;;;3.80;98.30;;;;;;5100428;28;20225;-82
2022/04/21 03:41:48;;;;;;;9.63;7.43;;;3.80;98.40;;;;;;5104601;28;20222;-81
2022/04/21 03:44:15;;;;;;;8.40;6.53;;;3.80;98.40;;;;;;5103183;27;20246;-82
2022/04/21 03:46:41;;;;;;;11.00;7.50;;;3.80;98.50;;;;;;5102943;28;20867;-81
2022/04/21 03:49:08;;;;;;;9.93;5.80;;;3.80;98.50;;;;;;5103545;27;20330;-81
2022/04/21 03:51:36;;;;;;;9.13;6.13;;;3.80;98.60;;;;;;5102671;28;20266;-82
2022/04/21 03:54:04;;;;;;;12.70;7.77;;;3.80;98.80;;;;;;5104574;27;20283;-81
2022/04/21 03:56:31;;;;;;;9.57;6.30;;;3.80;98.70;;;;;;5100821;28;20225;-82
2022/04/21 03:58:57;;;;;;;14.97;7.33;;;3.80;99.00;;;;;;5098255;28;20307;-82
2022/04/21 04:01:24;;;;;;;9.83;7.70;;;3.80;98.90;;;;;;5100355;27;20225;-82
2022/04/21 04:03:52;;;;;;;10.60;6.77;;;3.90;98.90;;;;;;5106363;28;20232;-83
2022/04/21 04:11:50;;;;;;;9.47;6.30;;;3.90;98.80;;;;;;5105181;27;20708;-82
2022/04/21 04:14:16;;;;;;;10.67;6.03;;;3.90;98.70;;;;;;5105541;28;20228;-81
2022/04/21 04:16:44;;;;;;;8.17;5.80;;;3.90;98.70;;;;;;5105480;28;20229;-81
2022/04/21 04:19:12;;;;;;;7.77;6.20;;;3.90;98.80;;;;;;5103957;27;20566;-80
2022/04/21 04:21:38;;;;;;;8.70;6.20;;;3.90;98.80;;;;;;5104655;28;20693;-80
2022/04/21 04:24:07;;;;;;;8.00;6.33;;;3.90;98.70;;;;;;5106422;27;22096;-82
2022/04/21 04:26:34;;;;;;;9.37;6.03;;;3.90;98.90;;;;;;5107619;27;20255;-79
2022/04/21 04:29:03;;;;;;;8.87;5.83;;;3.80;98.70;;;;;;5103159;28;20240;-82
2022/04/21 04:31:31;;;;;;;7.70;6.30;;;3.90;98.80;;;;;;5107331;27;20229;-82
2022/04/21 04:33:58;;;;;;;11.93;6.30;;;3.90;98.90;;;;;;5103952;28;20234;-83
2022/04/21 04:36:25;;;;;;;17.67;7.10;;;3.90;98.90;;;;;;5107442;27;20252;-81
2022/04/21 04:38:51;;;;;;;12.33;6.03;;;3.90;99.10;;;;;;5102972;28;20298;-79
2022/04/21 04:44:04;;;;;;;9.20;5.80;;;4.00;99.40;;;;;;5102525;28;20334;-79
2022/04/21 04:46:37;;;;;;;7.70;5.13;;;4.10;99.40;;;;;;5102511;28;20272;-79
2022/04/21 04:49:06;;;;;;;10.80;5.97;;;4.20;99.80;;;;;;5104016;28;20250;-79
2022/04/21 04:51:33;;;;;;;7.33;5.17;;;4.20;99.80;;;;;;5106998;28;20292;-79
2022/04/21 04:54:01;;;;;;;8.53;5.57;;;4.30;99.80;;;;;;5104082;28;20317;-79
2022/04/21 04:56:29;;;;;;;8.53;5.77;;;4.40;99.90;;;;;;5106206;28;20224;-78
2022/04/21 04:58:57;;;;;;;8.97;4.87;;;4.50;99.80;;;;;;5103925;28;20210;-79
2022/04/21 05:01:30;;;;;;;7.80;5.10;;;4.60;99.80;;;;;;5109872;28;20934;-79
2022/04/21 05:04:07;;;;;;;7.17;5.17;;;4.70;99.70;;;;;;5105739;28;20736;-79
2022/04/21 05:06:38;;;;;;;7.53;5.30;;;4.80;99.70;;;;;;5104683;27;20230;-77
2022/04/21 05:09:06;;;;;;;7.87;4.83;;;4.90;99.60;;;;;;5111863;28;20257;-81
2022/04/21 05:11:35;;;;;;;8.37;4.90;;;4.90;99.40;;;;;;5106355;28;20229;-78
2022/04/21 05:14:02;;;;;;;10.77;5.43;;;5.00;99.30;;;;;;5106693;28;20303;-79
2022/04/21 05:16:29;;;;;;;7.07;5.47;;;5.10;99.40;;;;;;5110536;28;20232;-79
2022/04/21 05:18:57;;;;;;;10.30;5.50;;;5.20;99.20;;;;;;5106497;28;20225;-78
2022/04/21 05:21:24;;;;;;;7.53;5.13;;;5.30;99.10;;;;;;5103932;27;20316;-79
2022/04/21 05:23:57;;;;;;;7.67;5.00;;;5.40;99.10;;;;;;5104404;28;20229;-79
2022/04/21 05:26:25;;;;;;;7.43;5.17;;;5.50;99.10;;;;;;5097774;28;20233;-79
2022/04/21 05:28:54;;;;;;;5.13;4.20;;;5.60;99.00;;;;;;5110306;27;20259;-79
2022/04/21 05:31:20;;;;;;;15.87;8.83;;;5.70;98.90;;;;;;5110519;28;20235;-79
2022/04/21 05:33:47;;;;;;;8.07;5.20;;;5.80;98.90;;;;;;5102449;28;20217;-80
2022/04/21 05:36:15;;;;;;;5.83;4.60;;;5.90;98.90;;;;;;5101300;28;20230;-78
2022/04/21 05:38:42;;;;;;;6.23;4.47;;;6.00;98.90;;;;;;5103441;28;20254;-79
2022/04/21 05:41:12;;;;;;;6.93;4.30;;;6.10;98.80;;;;;;5107710;27;20233;-79
2022/04/21 05:43:42;;;;;;;6.17;4.07;;;6.30;98.70;;;;;;5107560;28;20230;-79
2022/04/21 05:46:12;;;;;;;6.27;3.80;;;6.50;98.60;;;;;;5107345;28;20225;-78
2022/04/21 05:48:40;;;;;;;6.83;4.10;;;6.60;98.50;;;;;;5109987;27;20225;-79
2022/04/21 05:51:09;;;;;;;7.23;5.17;;;6.80;98.40;;;;;;5105667;28;20269;-79
2022/04/21 05:53:37;;;;;;;4.67;3.63;;;6.90;98.50;;;;;;5108188;28;20325;-80
2022/04/21 05:56:05;;;;;;;5.23;3.63;;;7.10;98.30;;;;;;5108311;27;20221;-79
2022/04/21 05:58:33;;;;;;;4.40;3.60;;;7.20;97.80;;;;;;5106614;28;20229;-79
2022/04/21 06:01:01;;;;;;;4.47;3.27;;;7.40;97.60;;;;;;5109197;27;20230;-79
2022/04/21 06:03:29;;;;;;;5.33;3.57;;;7.50;97.40;;;;;;5108476;28;20222;-79
2022/04/21 06:05:56;;;;;;;6.40;4.17;;;7.60;97.20;;;;;;5103080;28;20218;-79
2022/04/21 06:08:22;;;;;;;5.73;3.40;;;7.80;97.30;;;;;;5107463;28;20226;-79
2022/04/21 06:10:50;;;;;;;4.23;3.10;;;7.90;96.70;;;;;;5100415;28;20235;-79
2022/04/21 06:13:17;;;;;;;4.50;2.97;;;8.10;96.50;;;;;;5107534;27;20343;-79
2022/04/21 06:15:44;;;;;;;5.83;3.23;;;8.10;96.40;;;;;;5099531;28;20221;-78
2022/04/21 06:18:11;;;;;;;3.93;3.00;;;8.30;95.70;;;;;;5105427;27;20257;-78
2022/04/21 06:20:40;;;;;;;4.03;3.47;;;8.30;95.50;;;;;;5102897;28;20234;-78
2022/04/21 06:23:07;;;;;;;3.80;3.13;;;8.40;95.50;;;;;;5102632;28;20257;-79
2022/04/21 06:25:35;;;;;;;4.97;3.33;;;8.50;95.50;;;;;;5108038;28;20240;-78
2022/04/21 06:28:03;;;;;;;3.70;2.90;;;8.60;95.40;;;;;;5109352;28;20639;-78
2022/04/21 06:30:31;;;;;;;4.70;2.97;;;8.80;95.20;;;;;;5107822;28;20222;-79
2022/04/21 06:32:58;;;;;;;4.33;3.23;;;9.00;95.20;;;;;;5107443;28;20350;-79
2022/04/21 06:35:25;;;;;;;3.20;2.90;;;9.20;95.00;;;;;;5102040;28;20229;-78
2022/04/21 06:37:53;;;;;;;3.67;2.90;;;9.30;94.30;;;;;;5106384;28;21098;-79
2022/04/21 06:40:20;;;;;;;4.37;2.80;;;9.60;94.10;;;;;;5097816;27;20301;-79
2022/04/21 06:42:47;;;;;;;4.10;3.03;;;9.60;93.70;;;;;;5107432;28;20714;-79
2022/04/21 06:48:05;;;;;;;3.37;2.80;;;9.80;93.50;;;;;;5097565;27;20263;-79
2022/04/21 06:50:36;;;;;;;5.10;2.80;;;9.80;92.90;;;;;;5108138;27;20324;-79
2022/04/21 06:53:06;;;;;;;3.70;2.77;;;9.80;92.60;;;;;;5107889;28;20234;-78
2022/04/21 06:55:33;;;;;;;4.47;2.83;;;9.80;92.60;;;;;;5103795;27;20242;-79
2022/04/21 06:58:00;;;;;;;4.40;3.03;;;9.90;92.40;;;;;;5108475;28;20320;-79
2022/04/21 07:00:28;;;;;;;5.13;2.60;;;9.90;92.40;;;;;;5105500;28;20218;-79
2022/04/21 07:02:57;;;;;;;4.63;2.73;;;9.90;92.60;;;;;;5104391;28;20225;-80
2022/04/21 07:05:25;;;;;;;3.77;2.73;;;9.90;92.60;;;;;;5098008;28;20223;-79
2022/04/21 07:07:52;;;;;;;3.83;2.67;;;9.90;92.30;;;;;;5100904;28;20226;-79
2022/04/21 07:10:22;;;;;;;6.23;2.90;;;10.00;92.00;;;;;;5107926;28;20229;-79
2022/04/21 07:12:49;;;;;;;3.57;2.70;;;10.00;91.70;;;;;;5108484;28;20230;-79
2022/04/21 07:15:16;;;;;;;4.03;2.57;;;10.00;92.00;;;;;;5105790;27;20242;-80
2022/04/21 07:17:43;;;;;;;3.90;2.30;;;10.00;92.20;;;;;;5110226;28;20318;-80
2022/04/21 07:20:12;;;;;;;4.13;2.67;;;10.10;92.10;;;;;;5109168;28;20720;-80
2022/04/21 07:22:39;;;;;;;3.00;2.63;;;10.10;92.20;;;;;;5108199;28;20235;-80
2022/04/21 07:25:08;;;;;;;4.00;2.30;;;10.20;92.30;;;;;;5106611;28;20235;-80
2022/04/21 07:27:37;;;;;;;5.63;2.57;;;10.40;92.40;;;;;;5108680;28;20301;-80
2022/04/21 07:30:05;;;;;;;3.37;2.43;;;10.70;92.60;;;;;;5108452;27;20337;-79
2022/04/21 07:32:31;;;;;;;3.90;2.27;;;11.00;91.80;;;;;;5106060;28;20229;-80
2022/04/21 07:34:58;;;;;;;2.70;2.30;;;11.40;91.20;;;;;;5105163;28;20637;-80
2022/04/21 07:37:25;;;;;;;4.17;2.47;;;11.70;90.60;;;;;;5101914;28;20326;-79
2022/04/21 07:39:51;;;;;;;3.53;2.23;;;12.00;89.40;;;;;;5106496;27;20242;-80
2022/04/21 07:42:18;;;;;;;4.43;2.30;;;12.30;89.90;;;;;;5105465;28;20256;-78
2022/04/21 07:44:46;;;;;;;4.53;2.43;;;12.50;89.70;;;;;;5096670;28;20257;-78
2022/04/21 07:47:13;;;;;;;2.37;1.90;;;12.80;87.40;;;;;;5105493;28;20320;-78
2022/04/21 07:49:46;;;;;;;2.97;2.00;;;13.00;85.00;;;;;;5101477;28;20229;-79
2022/04/21 07:55:06;;;;;;;3.13;1.73;;;13.10;83.00;;;;;;5100785;28;20243;-80
2022/04/21 07:57:33;;;;;;;5.40;2.10;;;13.00;81.70;;;;;;5103761;28;20300;-78
2022/04/21 08:00:01;;;;;;;2.73;2.07;;;13.00;82.80;;;;;;5103094;28;20220;-78
2022/04/21 08:02:39;;;;;;;2.53;2.03;;;12.90;81.30;;;;;;5105900;28;20254;-78
2022/04/21 08:05:07;;;;;;;4.10;1.80;;;12.80;81.60;;;;;;5102696;28;20229;-78
2022/04/21 08:07:34;;;;;;;1.90;1.60;;;12.80;81.60;;;;;;5102778;28;20309;-78
2022/04/21 08:10:02;;;;;;;3.43;1.93;;;12.80;80.90;;;;;;5097938;28;21604;-79
2022/04/21 08:12:29;;;;;;;2.37;1.80;;;12.80;79.30;;;;;;5105351;28;20228;-79
2022/04/21 08:14:55;;;;;;;5.17;1.90;;;12.80;79.80;;;;;;5105690;28;20244;-79
2022/04/21 08:17:23;;;;;;;1.90;1.53;;;12.80;79.10;;;;;;5106613;28;20227;-79
2022/04/21 08:19:50;;;;;;;2.77;1.80;;;12.80;79.70;;;;;;5106843;28;20224;-79
2022/04/21 08:22:17;;;;;;;3.03;1.60;;;13.00;80.70;;;;;;5107386;28;20799;-79
2022/04/21 08:33:00;;;;;;;3.07;1.90;;;14.40;77.40;;;;;;5105516;28;20228;-79
2022/04/21 08:35:28;;;;;;;2.60;1.80;;;14.80;77.10;;;;;;5105775;28;20261;-79
2022/04/21 08:37:54;;;;;;;2.80;1.80;;;15.10;76.40;;;;;;5107045;28;20736;-79
2022/04/21 08:40:22;;;;;;;3.57;1.93;;;15.40;77.40;;;;;;5104456;27;20800;-79
2022/04/21 08:42:52;;;;;;;2.47;1.77;;;15.70;75.70;;;;;;5108021;28;20234;-79
2022/04/21 08:45:19;;;;;;;4.10;1.90;;;16.10;74.50;;;;;;5106105;28;20730;-79
2022/04/21 08:47:49;;;;;;;2.63;1.83;;;16.40;74.30;;;;;;5104907;28;20236;-78
2022/04/21 08:50:17;;;;;;;4.57;2.10;;;16.80;72.50;;;;;;5102114;28;20296;-77
2022/04/21 08:52:44;;;;;;;2.58;2.10;;;17.00;70.60;;;;;;5099872;28;20242;-80
2022/04/21 08:55:11;;;;;;;2.30;1.80;;;17.10;70.30;;;;;;5101394;28;20237;-80
2022/04/21 08:57:38;;;;;;;3.63;2.10;;;17.10;68.80;;;;;;5100318;28;20253;-77
2022/04/21 09:00:07;;;;;;;2.17;1.50;;;17.00;68.00;;;;;;5098408;28;20278;-77
2022/04/21 09:02:39;;;;;;;4.27;1.80;;;16.90;66.60;;;;;;5103299;28;20222;-78
2022/04/21 09:05:07;;;;;;;3.37;1.90;;;16.80;64.80;;;;;;5099614;28;20222;-80
2022/04/21 09:07:45;;;;;;;3.83;1.70;;;16.70;65.50;;;;;;5104455;28;20600;-80
2022/04/21 09:10:13;;;;;;;7.77;2.03;;;16.70;65.90;;;;;;5104209;28;20230;-78
2022/04/21 09:12:43;;;;;;;4.87;2.00;;;16.60;66.10;;;;;;5105554;28;20236;-78
2022/04/21 09:15:12;;;;;;;2.37;1.90;;;16.60;65.50;;;;;;5104249;28;20249;-79
2022/04/21 09:17:41;;;;;;;6.05;1.75;;;16.80;66.10;;;;;;5104032;28;20234;-78
2022/04/21 09:20:09;;;;;;;2.30;1.90;;;17.00;67.10;;;;;;5097166;28;20218;-78
2022/04/21 09:22:36;;;;;;;4.20;1.77;;;17.30;66.90;;;;;;5105205;28;20225;-78
2022/04/21 09:25:04;;;;;;;9.30;2.00;;;17.60;66.50;;;;;;5101896;27;20214;-79
2022/04/21 09:27:42;;;;;;;3.67;2.00;;;17.90;66.40;;;;;;5106391;28;20226;-79
2022/04/21 09:30:12;;;;;;;2.85;1.88;;;18.40;65.50;;;;;;5097852;28;20226;-79
2022/04/21 09:32:41;;;;;;;3.45;1.80;;;18.70;63.50;;;;;;5104990;28;20725;-80
2022/04/21 09:35:10;;;;;;;2.40;1.77;;;18.90;63.40;;;;;;5099815;28;20233;-79
2022/04/21 09:37:46;;;;;;;3.20;1.70;;;19.10;62.80;;;;;;5105638;28;20242;-79
2022/04/21 09:40:15;;;;;;;3.03;1.80;;;19.30;59.50;;;;;;5099240;28;20777;-79
2022/04/21 09:42:42;;;;;;;2.90;1.67;;;19.30;60.00;;;;;;5107688;28;20286;-79
2022/04/21 09:47:55;;;;;;;3.67;1.55;;;19.40;61.10;;;;;;5105326;28;20240;-79
2022/04/21 09:50:24;;;;;;;4.85;1.70;;;19.70;60.40;;;;;;5108146;28;20237;-79
2022/04/21 09:52:53;;;;;;;3.70;1.88;;;19.80;59.80;;;;;;5111017;27;21082;-80
2022/04/21 09:55:26;;;;;;;3.47;1.92;;;20.10;60.50;;;;;;5108091;28;20230;-79
2022/04/21 09:58:03;;;;;;;2.30;1.70;;;20.30;59.70;;;;;;5110985;28;20757;-80
2022/04/21 10:00:31;;;;;;;6.50;1.90;;;20.60;59.20;;;;;;5108957;28;20229;-79
2022/04/21 10:02:59;;;;;;;3.33;1.60;;;20.80;57.40;;;;;;5103530;28;20226;-79
2022/04/21 10:05:26;;;;;;;2.10;1.45;;;20.90;57.90;;;;;;5102525;28;20304;-79
2022/04/21 10:07:54;;;;;;;3.58;1.80;;;20.90;56.90;;;;;;5109584;27;20221;-79
2022/04/21 10:10:26;;;;;;;3.28;1.60;;;21.00;56.50;;;;;;5106333;27;20218;-79
2022/04/21 10:12:55;;;;;;;2.42;1.67;;;20.80;55.20;;;;;;5109647;27;20222;-79
2022/04/21 10:15:22;;;;;;;2.80;1.70;;;20.60;54.80;;;;;;5102086;28;20230;-79
2022/04/21 10:17:49;;;;;;;4.47;1.88;;;20.20;54.80;;;;;;5107097;28;20215;-79
2022/04/21 10:20:16;;;;;;;2.80;1.67;;;19.80;55.40;;;;;;5102178;28;20225;-79
2022/04/21 10:22:45;;;;;;;2.72;1.35;;;19.50;55.60;;;;;;5111130;28;20743;-79
2022/04/21 10:25:12;;;;;;;3.10;1.80;;;19.10;56.00;;;;;;5108542;28;20924;-78
2022/04/21 10:27:45;;;;;;;3.38;1.63;;;18.80;56.60;;;;;;5109382;28;20225;-79
2022/04/21 10:30:26;;;;;;;6.47;1.90;;;18.60;57.00;;;;;;5109079;27;20230;-81
2022/04/21 10:32:54;;;;;;;6.88;1.90;;;18.40;56.80;;;;;;5105411;27;20260;-80
2022/04/21 10:35:38;;;;;;;3.88;2.08;;;18.20;57.50;;;;;;5106870;28;20253;-79
2022/04/21 10:38:22;;;;;;;5.13;1.58;;;18.00;57.50;;;;;;5102945;28;20305;-79
2022/04/21 10:40:57;;;;;;;2.85;1.83;;;17.80;58.30;;;;;;5109803;28;20719;-79
2022/04/21 10:43:24;;;;;;;1.83;1.70;;;17.60;58.10;;;;;;5109318;28;20240;-79
2022/04/21 10:46:05;;;;;;;3.07;1.63;;;17.50;58.60;;;;;;5109381;28;20226;-79
2022/04/21 10:48:42;;;;;;;3.03;1.70;;;17.30;57.90;;;;;;5107393;27;20703;-79
2022/04/21 10:51:09;;;;;;;4.53;2.10;;;17.20;58.80;;;;;;5107629;28;20803;-79
2022/04/21 10:59:24;;;;;;;3.53;1.70;;;16.90;59.40;;;;;;5102259;28;20340;-79
2022/04/21 11:01:55;;;;;;;4.27;2.13;;;16.70;58.70;;;;;;5103015;28;20230;-79
2022/04/21 11:04:24;;;;;;;7.97;1.87;;;16.50;59.20;;;;;;5103790;27;20233;-79
2022/04/21 11:06:54;;;;;;;5.37;1.90;;;16.40;59.30;;;;;;5103091;28;20218;-79
2022/04/21 11:09:41;;;;;;;5.13;1.90;;;16.30;59.40;;;;;;5098789;28;20287;-79
2022/04/21 11:12:09;;;;;;;4.60;2.23;;;16.10;59.20;;;;;;5102348;27;20302;-79
2022/04/21 11:14:39;;;;;;;5.30;2.07;;;16.00;60.00;;;;;;5102697;27;20225;-79
2022/04/21 11:17:08;;;;;;;1.80;1.50;;;15.90;60.40;;;;;;5096413;28;20229;-79
2022/04/21 11:19:51;;;;;;;4.67;2.07;;;15.80;60.60;;;;;;5104947;28;20256;-79
2022/04/21 11:22:37;;;;;;;2.60;1.90;;;15.70;60.00;;;;;;5103179;28;20360;-79
2022/04/21 11:25:05;;;;;;;3.13;2.20;;;15.50;60.70;;;;;;5101157;28;20559;-79
2022/04/21 11:27:37;;;;;;;4.83;1.73;;;15.50;61.10;;;;;;5100582;28;20291;-79
2022/04/21 11:30:09;;;;;;;3.40;1.90;;;15.30;61.30;;;;;;5096829;28;20471;-79
2022/04/21 11:32:37;;;;;;;3.60;1.80;;;15.30;61.40;;;;;;5101840;28;20241;-80
2022/04/21 11:35:06;;;;;;;3.47;1.60;;;15.20;61.90;;;;;;5103388;28;20232;-80
2022/04/21 11:37:50;;;;;;;4.23;1.93;;;15.20;61.80;;;;;;5103864;28;20315;-79
2022/04/21 11:40:21;;;;;;;2.50;1.60;;;15.30;62.00;;;;;;5098868;28;20651;-79
2022/04/21 11:42:49;;;;;;;2.40;1.70;;;15.30;62.00;;;;;;5099611;28;20290;-79
2022/04/21 11:45:20;;;;;;;5.93;1.60;;;15.30;62.30;;;;;;5103736;28;20343;-79
2022/04/21 11:47:48;;;;;;;2.23;1.67;;;15.30;62.10;;;;;;5105859;27;20229;-79
2022/04/21 11:50:28;;;;;;;3.53;1.70;;;15.40;62.20;;;;;;5102726;28;20297;-79
2022/04/21 11:52:57;;;;;;;7.80;2.23;;;15.40;61.90;;;;;;5096913;28;20245;-79
2022/04/21 11:55:26;;;;;;;2.87;1.90;;;15.40;62.00;;;;;;5098891;28;20257;-80
2022/04/21 11:57:53;;;;;;;4.07;1.80;;;15.40;62.50;;;;;;5100618;27;20290;-79
2022/04/21 12:08:32;;;;;;;4.37;2.03;;;15.40;61.80;;;;;;5105056;28;20241;-80
2022/04/21 12:10:59;;;;;;;7.33;2.33;;;15.40;62.80;;;;;;5103155;28;20240;-79
2022/04/21 12:13:26;;;;;;;3.93;2.00;;;15.40;62.80;;;;;;5102788;28;20305;-79
2022/04/21 12:15:54;;;;;;;3.80;2.07;;;15.50;62.80;;;;;;5102646;28;20624;-79
2022/04/21 12:18:22;;;;;;;5.10;2.20;;;15.50;62.90;;;;;;5102365;28;20491;-79
2022/04/21 12:20:53;;;;;;;4.53;2.10;;;15.60;63.40;;;;;;5101838;28;20222;-79
2022/04/21 12:23:24;;;;;;;5.67;2.10;;;15.60;63.40;;;;;;5102368;28;20233;-80
2022/04/21 12:25:51;;;;;;;6.03;2.10;;;15.80;63.10;;;;;;5100182;28;20217;-79
2022/04/21 12:28:18;;;;;;;5.67;2.13;;;15.90;63.10;;;;;;5097191;28;20237;-79
2022/04/21 12:30:45;;;;;;;5.20;2.10;;;16.10;62.50;;;;;;5098515;28;20240;-79
2022/04/21 12:33:12;;;;;;;4.03;2.43;;;16.20;62.60;;;;;;5095021;28;20225;-79
2022/04/21 12:35:45;;;;;;;5.97;2.20;;;16.30;62.50;;;;;;5098178;28;20222;-80
2022/04/21 12:41:00;;;;;;;7.05;1.95;;;16.50;61.80;;;;;;5094613;28;20232;-79
2022/04/21 12:43:29;;;;;;;4.43;2.20;;;16.50;61.40;;;;;;5100810;28;20317;-80
2022/04/21 12:45:56;;;;;;;5.23;2.67;;;16.50;61.20;;;;;;5100984;28;20225;-79
2022/04/21 12:48:24;;;;;;;4.37;2.60;;;16.50;61.50;;;;;;5097139;28;20226;-79
2022/04/21 12:50:53;;;;;;;4.87;2.60;;;16.40;61.70;;;;;;5099033;28;20230;-79
2022/04/21 12:53:27;;;;;;;4.70;2.57;;;16.30;62.00;;;;;;5095474;28;20222;-79
2022/04/21 12:55:54;;;;;;;5.13;2.60;;;16.20;62.70;;;;;;5099438;28;20322;-79
2022/04/21 12:58:32;;;;;;;6.97;2.90;;;16.10;62.00;;;;;;5101286;27;20241;-79
2022/04/21 13:01:02;;;;;;;6.00;2.80;;;16.10;62.90;;;;;;5095277;28;20466;-79
2022/04/21 13:03:29;;;;;;;5.43;2.73;;;16.10;63.20;;;;;;5102715;27;20222;-79
2022/04/21 13:05:59;;;;;;;7.03;2.70;;;16.10;63.00;;;;;;5094510;28;20592;-79
2022/04/21 13:08:27;;;;;;;3.67;2.23;;;16.10;63.10;;;;;;5098712;28;20222;-79
2022/04/21 13:10:56;;;;;;;3.70;2.97;;;16.10;63.60;;;;;;5101055;28;20713;-79
2022/04/21 13:13:23;;;;;;;6.93;2.60;;;15.90;62.80;;;;;;5102238;28;20321;-80
2022/04/21 13:15:50;;;;;;;4.63;2.87;;;15.80;63.40;;;;;;5100443;27;20221;-79
2022/04/21 13:18:17;;;;;;;5.10;2.80;;;15.70;63.50;;;;;;5094571;28;20225;-80
2022/04/21 13:23:39;;;;;;;5.60;2.50;;;15.60;63.60;;;;;;5105333;28;20700;-79
2022/04/21 13:26:06;;;;;;;5.03;2.60;;;15.50;64.40;;;;;;5105300;27;20236;-79
2022/04/21 13:28:32;;;;;;;7.27;2.40;;;15.40;64.70;;;;;;5104219;28;20229;-79
2022/04/21 13:33:44;;;;;;;5.17;2.40;;;15.30;64.60;;;;;;5103332;28;20678;-79
2022/04/21 13:36:11;;;;;;;6.67;2.40;;;15.30;64.60;;;;;;5102258;28;20225;-79
2022/04/21 13:38:39;;;;;;;4.13;2.57;;;15.30;64.70;;;;;;5106399;27;20234;-80
2022/04/21 13:41:06;;;;;;;6.53;2.77;;;15.20;65.00;;;;;;5105768;28;20766;-79
2022/04/21 13:43:32;;;;;;;6.20;2.87;;;15.30;65.40;;;;;;5106403;28;20289;-80
2022/04/21 13:46:00;;;;;;;5.37;2.70;;;15.30;65.90;;;;;;5104059;28;20673;-79
2022/04/21 13:48:27;;;;;;;6.37;2.70;;;15.30;66.20;;;;;;5102997;28;20230;-79
2022/04/21 13:50:54;;;;;;;6.67;3.10;;;15.40;66.50;;;;;;5106195;28;20235;-80
2022/04/21 13:53:21;;;;;;;5.83;3.00;;;15.40;66.40;;;;;;5106176;27;21114;-79
2022/04/21 13:55:49;;;;;;;6.23;2.60;;;15.50;66.60;;;;;;5107565;28;20234;-80
2022/04/21 13:58:16;;;;;;;4.50;2.53;;;15.50;66.30;;;;;;5107070;28;20302;-79
2022/04/21 14:00:45;;;;;;;4.20;2.57;;;15.60;66.40;;;;;;5100611;28;20822;-79